Time;durP1;ratioP1;P1;durP2;ratioP2;P2;SDS_P1;SDS_P2;PMS_P1;PMS_P2;Temp;Humidity;BMP_temperature;BMP_pressure;BME280_temperature;BME280_humidity;BME280_pressure;Samples;Min_cycle;Max_cycle;Signal;HPM_P1;HPM_P2
2022/02/25 00:01:40;;;;;;;4.72;2.50;;;;;;;;;;5010773;28;20521;-68
2022/02/25 00:04:10;;;;;;;4.50;2.08;;;;;;;;;;5009396;28;20042;-69
2022/02/25 00:06:38;;;;;;;5.13;2.30;;;;;;;;;;5014379;28;20096;-68
2022/02/25 00:09:06;;;;;;;4.10;2.10;;;;;;;;;;5012420;28;20056;-69
2022/02/25 00:11:35;;;;;;;6.93;2.08;;;;;;;;;;5013962;28;20068;-70
2022/02/25 00:14:02;;;;;;;5.60;2.50;;;;;;;;;;5015106;28;20405;-70
2022/02/25 00:16:36;;;;;;;4.35;2.38;;;;;;;;;;5015114;28;20069;-71
2022/02/25 00:19:04;;;;;;;3.40;2.45;;;;;;;;;;5017899;28;20056;-69
2022/02/25 00:21:32;;;;;;;4.28;2.42;;;;;;;;;;5014733;28;20061;-69
2022/02/25 00:24:00;;;;;;;4.82;2.63;;;;;;;;;;5015071;28;20045;-69
2022/02/25 00:26:28;;;;;;;5.03;2.40;;;;;;;;;;5015208;28;20057;-69
2022/02/25 00:28:55;;;;;;;6.97;2.35;;;;;;;;;;5014077;28;20056;-69
2022/02/25 00:31:23;;;;;;;6.80;2.33;;;;;;;;;;5015298;28;20050;-69
2022/02/25 00:33:51;;;;;;;7.05;2.50;;;;;;;;;;5015185;28;20042;-69
2022/02/25 00:36:18;;;;;;;5.63;2.72;;;;;;;;;;5015431;28;20049;-69
2022/02/25 00:38:45;;;;;;;4.57;2.30;;;;;;;;;;5014892;28;20034;-69
2022/02/25 00:41:13;;;;;;;3.42;2.20;;;;;;;;;;5015133;28;20379;-69
2022/02/25 00:43:40;;;;;;;4.35;2.17;;;;;;;;;;5015243;28;20048;-69
2022/02/25 00:46:08;;;;;;;7.90;2.38;;;;;;;;;;5015596;28;20070;-69
2022/02/25 00:48:36;;;;;;;4.20;2.15;;;;;;;;;;5014974;28;20489;-69
2022/02/25 00:51:04;;;;;;;3.97;2.40;;;;;;;;;;5014615;28;20038;-70
2022/02/25 00:53:32;;;;;;;4.22;2.47;;;;;;;;;;5014966;28;20107;-69
2022/02/25 00:55:59;;;;;;;6.78;2.20;;;;;;;;;;5014848;28;20042;-70
2022/02/25 00:58:26;;;;;;;3.65;2.40;;;;;;;;;;5014636;28;20045;-69
2022/02/25 01:00:55;;;;;;;4.82;2.72;;;;;;;;;;5014942;28;20046;-69
2022/02/25 01:03:24;;;;;;;11.63;2.97;;;;;;;;;;5013242;28;20075;-69
2022/02/25 01:05:52;;;;;;;8.73;3.08;;;;;;;;;;5013968;28;20053;-69
2022/02/25 01:08:22;;;;;;;6.95;3.03;;;;;;;;;;5014768;28;20121;-69
2022/02/25 01:10:49;;;;;;;5.35;2.83;;;;;;;;;;5014594;28;20046;-69
2022/02/25 01:13:16;;;;;;;6.70;3.10;;;;;;;;;;5014231;28;20052;-69
2022/02/25 01:15:46;;;;;;;4.30;2.53;;;;;;;;;;5014215;28;20044;-69
2022/02/25 01:18:14;;;;;;;9.48;3.05;;;;;;;;;;5014578;28;20539;-69
2022/02/25 01:20:43;;;;;;;9.05;2.90;;;;;;;;;;5014517;28;20049;-69
2022/02/25 01:23:11;;;;;;;5.65;2.72;;;;;;;;;;5013847;28;20527;-69
2022/02/25 01:25:38;;;;;;;5.57;2.67;;;;;;;;;;5013924;28;20060;-69
2022/02/25 01:28:06;;;;;;;7.13;2.75;;;;;;;;;;5014353;28;20054;-69
2022/02/25 01:30:33;;;;;;;9.70;3.00;;;;;;;;;;5013731;28;20045;-69
2022/02/25 01:33:01;;;;;;;4.90;2.38;;;;;;;;;;5014165;28;20042;-69
2022/02/25 01:35:30;;;;;;;7.72;2.60;;;;;;;;;;5013872;28;20038;-69
2022/02/25 01:38:01;;;;;;;9.15;2.75;;;;;;;;;;5013449;28;20044;-69
2022/02/25 01:40:33;;;;;;;6.55;2.78;;;;;;;;;;5014225;28;20056;-69
2022/02/25 01:43:01;;;;;;;6.88;4.03;;;;;;;;;;5014079;28;20648;-69
2022/02/25 01:45:32;;;;;;;4.22;2.60;;;;;;;;;;5014016;28;20153;-69
2022/02/25 01:47:59;;;;;;;5.60;2.53;;;;;;;;;;5012920;28;20049;-69
2022/02/25 01:50:29;;;;;;;6.30;2.28;;;;;;;;;;5013355;28;20080;-69
2022/02/25 01:52:59;;;;;;;6.03;2.42;;;;;;;;;;5013556;28;20448;-70
2022/02/25 01:55:28;;;;;;;4.10;2.38;;;;;;;;;;5013672;28;20057;-69
2022/02/25 01:57:55;;;;;;;4.68;2.28;;;;;;;;;;5013751;28;20433;-69
2022/02/25 02:00:25;;;;;;;4.28;2.00;;;;;;;;;;5013635;28;20038;-69
2022/02/25 02:02:53;;;;;;;3.67;1.92;;;;;;;;;;5013659;28;20041;-69
2022/02/25 02:05:21;;;;;;;2.58;1.83;;;;;;;;;;5013980;28;20541;-69
2022/02/25 02:07:51;;;;;;;2.47;2.00;;;;;;;;;;5013950;28;20042;-70
2022/02/25 02:10:19;;;;;;;6.40;1.98;;;;;;;;;;5013669;28;20385;-69
2022/02/25 02:12:48;;;;;;;4.15;2.42;;;;;;;;;;5028504;28;20125;-70
2022/02/25 02:15:15;;;;;;;2.85;2.00;;;;;;;;;;5012987;28;20478;-69
2022/02/25 02:17:43;;;;;;;4.63;1.92;;;;;;;;;;5011723;28;20088;-70
2022/02/25 02:20:15;;;;;;;3.67;2.03;;;;;;;;;;5012823;28;20042;-69
2022/02/25 02:22:42;;;;;;;5.07;2.58;;;;;;;;;;5012493;28;20042;-69
2022/02/25 02:25:11;;;;;;;3.28;2.05;;;;;;;;;;5011707;28;20049;-69
2022/02/25 02:30:28;;;;;;;3.35;1.85;;;;;;;;;;5012796;28;20050;-69
2022/02/25 02:32:59;;;;;;;5.53;2.20;;;;;;;;;;5012512;28;20038;-69
2022/02/25 02:35:26;;;;;;;3.60;2.20;;;;;;;;;;5012082;28;20053;-69
2022/02/25 02:37:54;;;;;;;4.63;2.70;;;;;;;;;;5012716;28;20041;-69
2022/02/25 02:40:22;;;;;;;5.57;3.70;;;;;;;;;;5013584;28;20391;-69
2022/02/25 02:42:49;;;;;;;5.40;3.47;;;;;;;;;;5013266;28;20121;-69
2022/02/25 02:45:17;;;;;;;6.05;3.42;;;;;;;;;;5012720;28;20058;-69
2022/02/25 02:47:44;;;;;;;5.25;3.47;;;;;;;;;;5013038;28;20046;-69
2022/02/25 02:50:12;;;;;;;6.47;3.70;;;;;;;;;;5012463;28;20244;-69
2022/02/25 02:52:43;;;;;;;9.23;5.50;;;;;;;;;;5013294;28;20046;-69
2022/02/25 02:55:10;;;;;;;7.43;4.38;;;;;;;;;;5013009;28;20544;-69
2022/02/25 02:57:40;;;;;;;5.82;2.58;;;;;;;;;;5012756;28;20042;-70
2022/02/25 03:00:08;;;;;;;4.00;2.42;;;;;;;;;;5013120;28;20038;-69
2022/02/25 03:02:36;;;;;;;3.53;2.42;;;;;;;;;;5012612;28;20096;-69
2022/02/25 03:05:04;;;;;;;3.70;2.35;;;;;;;;;;5012943;28;20056;-69
2022/02/25 03:07:35;;;;;;;6.85;2.42;;;;;;;;;;5012989;28;20605;-69
2022/02/25 03:10:03;;;;;;;7.30;2.20;;;;;;;;;;5012521;28;20049;-69
2022/02/25 03:12:33;;;;;;;4.10;2.10;;;;;;;;;;5012924;28;20121;-69
2022/02/25 03:15:04;;;;;;;6.55;2.25;;;;;;;;;;5012364;28;20042;-69
2022/02/25 03:17:34;;;;;;;4.82;1.88;;;;;;;;;;5012672;28;20061;-69
2022/02/25 03:20:02;;;;;;;5.65;2.22;;;;;;;;;;5012763;28;20497;-69
2022/02/25 03:22:29;;;;;;;4.88;2.25;;;;;;;;;;5011402;28;20141;-69
2022/02/25 03:24:57;;;;;;;5.10;3.10;;;;;;;;;;5012657;28;20064;-69
2022/02/25 03:27:28;;;;;;;9.38;5.13;;;;;;;;;;5012810;28;20173;-69
2022/02/25 03:29:56;;;;;;;6.88;3.65;;;;;;;;;;5012434;28;20042;-69
2022/02/25 03:32:24;;;;;;;3.47;2.40;;;;;;;;;;5012457;28;20048;-69
2022/02/25 03:34:52;;;;;;;3.55;2.10;;;;;;;;;;5012745;28;20058;-69
2022/02/25 03:37:20;;;;;;;4.63;2.10;;;;;;;;;;5012914;28;20085;-69
2022/02/25 03:39:48;;;;;;;4.88;2.30;;;;;;;;;;5012375;28;20062;-69
2022/02/25 03:42:18;;;;;;;3.63;1.90;;;;;;;;;;5012591;28;20099;-69
2022/02/25 03:44:46;;;;;;;4.85;2.13;;;;;;;;;;5012358;28;20107;-69
2022/02/25 03:47:13;;;;;;;4.90;2.17;;;;;;;;;;5015993;28;20520;-69
2022/02/25 03:49:41;;;;;;;7.70;4.45;;;;;;;;;;5015668;28;20049;-69
2022/02/25 03:52:08;;;;;;;3.17;2.63;;;;;;;;;;5015860;28;20154;-69
2022/02/25 03:54:36;;;;;;;7.53;3.20;;;;;;;;;;5015854;28;20049;-69
2022/02/25 03:57:07;;;;;;;5.43;3.00;;;;;;;;;;5015959;28;20046;-69
2022/02/25 03:59:35;;;;;;;3.70;2.65;;;;;;;;;;5015884;28;20180;-69
2022/02/25 04:02:02;;;;;;;4.07;2.80;;;;;;;;;;5015944;28;20038;-69
2022/02/25 04:04:33;;;;;;;6.20;3.80;;;;;;;;;;5016168;28;20390;-68
2022/02/25 04:07:01;;;;;;;5.53;3.33;;;;;;;;;;5015428;28;20045;-69
2022/02/25 04:09:28;;;;;;;5.30;2.80;;;;;;;;;;5015560;28;20071;-69
2022/02/25 04:11:56;;;;;;;5.40;2.08;;;;;;;;;;5015328;28;20387;-69
2022/02/25 04:14:26;;;;;;;3.47;2.40;;;;;;;;;;5015390;28;20041;-69
2022/02/25 04:16:54;;;;;;;9.77;3.28;;;;;;;;;;5015599;28;20034;-69
2022/02/25 04:19:23;;;;;;;4.43;3.50;;;;;;;;;;5015431;28;20062;-69
2022/02/25 04:21:50;;;;;;;4.80;3.20;;;;;;;;;;5015400;28;20052;-69
2022/02/25 04:24:18;;;;;;;5.20;2.90;;;;;;;;;;5015377;28;20061;-69
2022/02/25 04:26:48;;;;;;;4.38;2.50;;;;;;;;;;5014058;28;20133;-70
2022/02/25 04:29:16;;;;;;;3.88;2.00;;;;;;;;;;5013662;28;20054;-68
2022/02/25 04:31:44;;;;;;;3.28;2.30;;;;;;;;;;5013751;28;20048;-69
2022/02/25 04:34:12;;;;;;;4.07;1.77;;;;;;;;;;5014784;28;20068;-69
2022/02/25 04:36:39;;;;;;;6.78;2.38;;;;;;;;;;5014702;28;20441;-69
2022/02/25 04:39:09;;;;;;;3.63;1.80;;;;;;;;;;5015105;28;20045;-69
2022/02/25 04:41:36;;;;;;;3.38;1.63;;;;;;;;;;5014982;28;20042;-69
2022/02/25 04:44:06;;;;;;;2.70;1.77;;;;;;;;;;5014317;28;20059;-69
2022/02/25 04:46:39;;;;;;;2.53;1.70;;;;;;;;;;5014998;28;20084;-69
2022/02/25 04:49:09;;;;;;;2.65;1.50;;;;;;;;;;5014831;28;20481;-69
2022/02/25 04:51:40;;;;;;;4.50;1.48;;;;;;;;;;5011617;28;20045;-69
2022/02/25 04:54:10;;;;;;;3.78;1.63;;;;;;;;;;5013224;28;20450;-69
2022/02/25 04:56:42;;;;;;;2.78;1.60;;;;;;;;;;5016127;28;20034;-69
2022/02/25 04:59:12;;;;;;;3.40;2.10;;;;;;;;;;5014796;28;20099;-69
2022/02/25 05:01:46;;;;;;;3.30;1.52;;;;;;;;;;5014500;28;20045;-69
2022/02/25 05:04:16;;;;;;;2.35;2.00;;;;;;;;;;5014915;28;20050;-69
2022/02/25 05:06:47;;;;;;;4.10;1.50;;;;;;;;;;5014615;28;20045;-69
2022/02/25 05:09:17;;;;;;;3.00;1.27;;;;;;;;;;5014148;28;20057;-69
2022/02/25 05:11:45;;;;;;;4.68;1.63;;;;;;;;;;5014291;28;20046;-69
2022/02/25 05:22:33;;;;;;;1.65;1.40;;;;;;;;;;5014407;28;20532;-69
2022/02/25 05:25:00;;;;;;;4.47;1.83;;;;;;;;;;5013883;28;20057;-69
2022/02/25 05:27:29;;;;;;;4.95;2.25;;;;;;;;;;5013620;28;20046;-69
2022/02/25 05:29:57;;;;;;;2.15;1.45;;;;;;;;;;5019333;28;20100;-69
2022/02/25 05:32:25;;;;;;;3.05;1.85;;;;;;;;;;5028883;28;20049;-69
2022/02/25 05:34:55;;;;;;;2.85;1.48;;;;;;;;;;5013975;28;20064;-69
2022/02/25 05:37:23;;;;;;;3.10;1.73;;;;;;;;;;5029030;28;20038;-69
2022/02/25 05:39:52;;;;;;;3.15;1.92;;;;;;;;;;5013661;28;20128;-70
2022/02/25 05:42:21;;;;;;;3.00;2.22;;;;;;;;;;5013940;28;20065;-69
2022/02/25 05:44:51;;;;;;;3.50;2.03;;;;;;;;;;5014837;28;20045;-69
2022/02/25 05:47:18;;;;;;;7.25;2.80;;;;;;;;;;5017797;28;20034;-69
2022/02/25 05:49:47;;;;;;;7.38;3.53;;;;;;;;;;5013860;28;20557;-69
2022/02/25 05:52:18;;;;;;;7.40;3.55;;;;;;;;;;5013519;28;20038;-69
2022/02/25 05:54:45;;;;;;;4.68;2.53;;;;;;;;;;5013592;28;20038;-69
2022/02/25 05:57:15;;;;;;;6.53;2.70;;;;;;;;;;5013436;28;20042;-68
2022/02/25 05:59:46;;;;;;;2.92;2.10;;;;;;;;;;5013110;28;20038;-71
2022/02/25 06:02:18;;;;;;;2.90;1.75;;;;;;;;;;5016493;28;20065;-69
2022/02/25 06:04:45;;;;;;;4.20;1.90;;;;;;;;;;5022446;28;20409;-69
2022/02/25 06:07:15;;;;;;;2.50;1.88;;;;;;;;;;5015840;28;20046;-69
2022/02/25 06:09:42;;;;;;;2.88;1.92;;;;;;;;;;5012506;28;20042;-70
2022/02/25 06:12:10;;;;;;;3.30;1.83;;;;;;;;;;5013582;28;20057;-69
2022/02/25 06:14:38;;;;;;;4.28;1.70;;;;;;;;;;4995572;28;20050;-69
2022/02/25 06:17:07;;;;;;;2.30;1.30;;;;;;;;;;5013573;28;20042;-70
2022/02/25 06:19:34;;;;;;;1.70;1.60;;;;;;;;;;5013477;28;20061;-69
2022/02/25 06:22:02;;;;;;;10.10;2.03;;;;;;;;;;5013617;28;20405;-68
2022/02/25 06:24:30;;;;;;;9.95;2.10;;;;;;;;;;5013370;28;20061;-70
2022/02/25 06:27:02;;;;;;;3.45;1.73;;;;;;;;;;5013205;28;20069;-70
2022/02/25 06:29:30;;;;;;;7.03;1.90;;;;;;;;;;5012892;28;20092;-70
2022/02/25 06:31:57;;;;;;;8.88;2.10;;;;;;;;;;5012896;28;20141;-68
2022/02/25 06:34:25;;;;;;;4.00;1.92;;;;;;;;;;5013012;28;20034;-70
2022/02/25 06:36:55;;;;;;;7.70;1.92;;;;;;;;;;5013333;28;20539;-70
2022/02/25 06:39:24;;;;;;;4.68;2.20;;;;;;;;;;5021695;28;20029;-70
2022/02/25 06:41:54;;;;;;;4.82;3.10;;;;;;;;;;5016964;28;20042;-69
2022/02/25 06:44:22;;;;;;;10.15;4.38;;;;;;;;;;5013370;28;20081;-68
2022/02/25 06:46:50;;;;;;;9.85;5.13;;;;;;;;;;5010868;28;20050;-68
2022/02/25 06:49:28;;;;;;;19.00;6.28;;;;;;;;;;5018675;28;20045;-68
2022/02/25 06:51:57;;;;;;;12.40;6.60;;;;;;;;;;5019785;28;20427;-70
2022/02/25 06:54:25;;;;;;;15.00;5.72;;;;;;;;;;5023555;28;20100;-68
2022/02/25 06:56:53;;;;;;;21.85;11.63;;;;;;;;;;5027343;28;20068;-70
2022/02/25 06:59:20;;;;;;;50.05;22.25;;;;;;;;;;5029025;28;20053;-69
2022/02/25 07:01:48;;;;;;;15.55;8.40;;;;;;;;;;5031053;28;20054;-71
2022/02/25 07:04:15;;;;;;;10.45;5.85;;;;;;;;;;5015371;28;20084;-71
2022/02/25 07:06:44;;;;;;;13.82;3.78;;;;;;;;;;5018568;28;20036;-71
2022/02/25 07:09:15;;;;;;;7.07;3.25;;;;;;;;;;5011859;28;20054;-71
2022/02/25 07:11:42;;;;;;;6.75;3.10;;;;;;;;;;5009783;28;20070;-71
2022/02/25 07:14:16;;;;;;;7.30;3.30;;;;;;;;;;5011811;28;20034;-71
2022/02/25 07:16:44;;;;;;;10.25;3.15;;;;;;;;;;5012281;28;20117;-71
2022/02/25 07:19:12;;;;;;;11.80;3.35;;;;;;;;;;5018088;28;20069;-71
2022/02/25 07:21:40;;;;;;;5.65;2.88;;;;;;;;;;5016646;28;20478;-71
2022/02/25 07:24:09;;;;;;;8.07;3.75;;;;;;;;;;5106354;22;20496;-72
2022/02/25 07:26:37;;;;;;;7.97;3.50;;;;;;;;;;5010367;28;20053;-72
2022/02/25 07:29:05;;;;;;;10.27;3.83;;;;;;;;;;5009264;28;20042;-70
2022/02/25 07:31:33;;;;;;;17.98;4.78;;;;;;;;;;4995999;28;20042;-74
2022/02/25 07:34:03;;;;;;;14.73;4.47;;;;;;;;;;4995041;28;20057;-70
2022/02/25 07:36:31;;;;;;;7.38;4.07;;;;;;;;;;4994702;28;20038;-70
2022/02/25 07:38:58;;;;;;;10.77;4.40;;;;;;;;;;4995542;28;20129;-73
2022/02/25 07:41:26;;;;;;;7.20;4.25;;;;;;;;;;4996117;28;20039;-72
2022/02/25 07:43:54;;;;;;;6.13;3.85;;;;;;;;;;4994664;28;20133;-70
2022/02/25 07:46:23;;;;;;;9.30;3.97;;;;;;;;;;4996155;28;20059;-70
2022/02/25 07:49:13;;;;;;;9.73;3.85;;;;;;;;;;4995921;28;20046;-70
2022/02/25 07:51:40;;;;;;;5.35;3.38;;;;;;;;;;4995725;28;20046;-70
2022/02/25 07:54:08;;;;;;;7.40;2.83;;;;;;;;;;4995750;28;20035;-71
2022/02/25 07:56:35;;;;;;;4.38;2.53;;;;;;;;;;4978205;28;20436;-70
2022/02/25 07:59:05;;;;;;;5.40;2.50;;;;;;;;;;4995940;28;20051;-72
2022/02/25 08:01:33;;;;;;;2.22;1.92;;;;;;;;;;4995729;28;20482;-73
2022/02/25 08:04:01;;;;;;;2.70;1.77;;;;;;;;;;4993943;28;20157;-70
2022/02/25 08:06:28;;;;;;;5.07;2.17;;;;;;;;;;4995711;28;20042;-70
2022/02/25 08:08:56;;;;;;;5.65;2.10;;;;;;;;;;4995617;28;20409;-71
2022/02/25 08:11:25;;;;;;;5.85;2.08;;;;;;;;;;4995945;28;20402;-73
2022/02/25 08:13:52;;;;;;;6.15;1.77;;;;;;;;;;4994280;28;20387;-70
2022/02/25 08:16:23;;;;;;;3.92;2.10;;;;;;;;;;4993999;28;20520;-72
2022/02/25 08:18:51;;;;;;;4.25;1.92;;;;;;;;;;4995648;28;20038;-71
2022/02/25 08:21:18;;;;;;;7.65;1.92;;;;;;;;;;4995549;28;20054;-71
2022/02/25 08:23:46;;;;;;;5.93;2.00;;;;;;;;;;4993976;28;20077;-72
2022/02/25 08:26:18;;;;;;;;;;;;;;;;;;4995687;28;20054;-70
2022/02/25 08:28:46;;;;;;;5.45;1.92;;;;;;;;;;4995183;28;19922;-72
2022/02/25 08:31:13;;;;;;;2.95;1.75;;;;;;;;;;5009261;28;20050;-72
2022/02/25 08:33:42;;;;;;;4.55;1.80;;;;;;;;;;4995239;28;20564;-73
2022/02/25 08:36:10;;;;;;;1.92;1.60;;;;;;;;;;4995181;28;20398;-71
2022/02/25 08:38:38;;;;;;;3.80;2.30;;;;;;;;;;4994794;28;20050;-72
2022/02/25 08:41:05;;;;;;;5.97;2.35;;;;;;;;;;4995102;28;20328;-70
2022/02/25 08:43:33;;;;;;;8.35;1.98;;;;;;;;;;4994872;28;20045;-70
2022/02/25 08:46:08;;;;;;;3.05;2.22;;;;;;;;;;4994974;28;20109;-70
2022/02/25 08:48:38;;;;;;;6.88;2.20;;;;;;;;;;5009931;28;20464;-70
2022/02/25 08:51:06;;;;;;;6.20;2.70;;;;;;;;;;4993018;28;20457;-72
2022/02/25 08:53:34;;;;;;;6.85;2.92;;;;;;;;;;4994784;28;20042;-70
2022/02/25 08:56:02;;;;;;;8.18;2.60;;;;;;;;;;4994764;28;20035;-72
2022/02/25 08:58:29;;;;;;;4.22;2.47;;;;;;;;;;4994670;28;20042;-70
2022/02/25 09:00:57;;;;;;;4.80;1.90;;;;;;;;;;4993132;28;20573;-73
2022/02/25 09:03:24;;;;;;;4.50;2.70;;;;;;;;;;4994492;28;20113;-70
2022/02/25 09:05:53;;;;;;;7.05;3.28;;;;;;;;;;4994465;28;20073;-72
2022/02/25 09:08:21;;;;;;;4.68;3.08;;;;;;;;;;4994827;28;20042;-71
2022/02/25 09:10:49;;;;;;;3.65;2.50;;;;;;;;;;4993297;28;20038;-73
2022/02/25 09:13:17;;;;;;;3.70;2.28;;;;;;;;;;4993304;28;20046;-70
2022/02/25 09:15:44;;;;;;;4.45;2.30;;;;;;;;;;4994150;28;20409;-70
2022/02/25 09:18:12;;;;;;;4.10;2.22;;;;;;;;;;4994620;28;20421;-70
2022/02/25 09:20:45;;;;;;;6.85;3.47;;;;;;;;;;4994446;28;20089;-70
2022/02/25 09:23:13;;;;;;;5.53;2.63;;;;;;;;;;4994120;28;20041;-70
2022/02/25 09:25:41;;;;;;;7.60;2.83;;;;;;;;;;4994282;28;20129;-73
2022/02/25 09:28:09;;;;;;;5.57;2.60;;;;;;;;;;4993820;28;20042;-72
2022/02/25 09:30:37;;;;;;;4.00;2.30;;;;;;;;;;5009078;28;20133;-69
2022/02/25 09:33:05;;;;;;;7.40;2.53;;;;;;;;;;4994299;28;20046;-70
2022/02/25 09:35:32;;;;;;;6.85;3.42;;;;;;;;;;4992805;28;20068;-70
2022/02/25 09:38:00;;;;;;;6.75;3.28;;;;;;;;;;4994068;28;20089;-69
2022/02/25 09:40:28;;;;;;;6.57;3.72;;;;;;;;;;4992340;28;20046;-73
2022/02/25 09:42:58;;;;;;;9.25;4.95;;;;;;;;;;5008767;28;20129;-73
2022/02/25 09:45:26;;;;;;;10.85;6.32;;;;;;;;;;4992716;28;20047;-70
2022/02/25 09:47:53;;;;;;;6.00;3.92;;;;;;;;;;4993896;28;20049;-73
2022/02/25 09:50:25;;;;;;;6.72;2.90;;;;;;;;;;4993737;28;20081;-70
2022/02/25 09:52:54;;;;;;;6.35;3.17;;;;;;;;;;4993618;28;20038;-70
2022/02/25 09:55:29;;;;;;;8.73;3.20;;;;;;;;;;4993474;28;20519;-72
2022/02/25 09:58:00;;;;;;;6.20;3.70;;;;;;;;;;4976115;28;20047;-73
2022/02/25 10:00:28;;;;;;;6.55;3.20;;;;;;;;;;4992227;28;20050;-70
2022/02/25 10:02:58;;;;;;;6.85;3.08;;;;;;;;;;4993309;28;20035;-70
2022/02/25 10:05:27;;;;;;;5.03;2.75;;;;;;;;;;4993838;28;20100;-70
2022/02/25 10:08:06;;;;;;;4.80;2.75;;;;;;;;;;4992266;28;20073;-73
2022/02/25 10:10:40;;;;;;;6.30;3.30;;;;;;;;;;4992151;28;20048;-73
2022/02/25 10:13:07;;;;;;;8.55;3.53;;;;;;;;;;4992092;28;20042;-70
2022/02/25 10:15:36;;;;;;;5.78;2.40;;;;;;;;;;4992952;28;20042;-70
2022/02/25 10:18:10;;;;;;;4.85;2.40;;;;;;;;;;4993312;28;20045;-70
2022/02/25 10:20:39;;;;;;;6.95;2.83;;;;;;;;;;4993279;28;20042;-74
2022/02/25 10:23:22;;;;;;;3.38;2.30;;;;;;;;;;4993343;28;20486;-74
2022/02/25 10:25:50;;;;;;;5.85;2.42;;;;;;;;;;4992973;28;20052;-70
2022/02/25 10:28:31;;;;;;;4.07;2.53;;;;;;;;;;5007965;28;20060;-72
2022/02/25 10:31:14;;;;;;;7.50;3.00;;;;;;;;;;5008150;28;20130;-71
2022/02/25 10:33:42;;;;;;;6.55;2.42;;;;;;;;;;4993174;28;20104;-71
2022/02/25 10:36:09;;;;;;;4.47;2.30;;;;;;;;;;4992025;28;20406;-74
2022/02/25 10:38:37;;;;;;;5.15;3.63;;;;;;;;;;4991472;28;20042;-71
2022/02/25 10:41:05;;;;;;;4.38;2.08;;;;;;;;;;4993072;28;20043;-71
2022/02/25 10:43:33;;;;;;;3.20;2.10;;;;;;;;;;4992973;28;20082;-70
2022/02/25 10:46:10;;;;;;;5.05;2.47;;;;;;;;;;5007881;28;20039;-71
2022/02/25 10:48:46;;;;;;;3.63;2.40;;;;;;;;;;5007923;28;20046;-71
2022/02/25 10:51:21;;;;;;;4.85;2.40;;;;;;;;;;4992564;28;20046;-71
2022/02/25 10:53:49;;;;;;;2.70;1.50;;;;;;;;;;4992769;28;20437;-71
2022/02/25 10:56:18;;;;;;;1.98;1.33;;;;;;;;;;4996511;28;20406;-75
2022/02/25 10:58:53;;;;;;;3.20;1.63;;;;;;;;;;4997630;28;20394;-73
2022/02/25 11:01:24;;;;;;;2.40;1.70;;;;;;;;;;4997171;28;20465;-71
2022/02/25 11:04:21;;;;;;;4.07;1.67;;;;;;;;;;5028141;28;20383;-71
2022/02/25 11:06:49;;;;;;;3.10;1.60;;;;;;;;;;4988513;28;20141;-72
2022/02/25 11:09:17;;;;;;;2.97;1.77;;;;;;;;;;4995614;28;20202;-71
2022/02/25 11:11:45;;;;;;;2.33;1.50;;;;;;;;;;4996915;28;20042;-71
2022/02/25 11:14:12;;;;;;;3.08;1.73;;;;;;;;;;4996775;28;20081;-71
2022/02/25 11:16:44;;;;;;;2.83;1.35;;;;;;;;;;4996269;28;20501;-73
2022/02/25 11:19:27;;;;;;;3.20;1.33;;;;;;;;;;4995311;28;20104;-71
2022/02/25 11:21:54;;;;;;;4.15;1.73;;;;;;;;;;4996415;28;20042;-71
2022/02/25 11:24:23;;;;;;;2.50;1.30;;;;;;;;;;4996567;28;20058;-72
2022/02/25 11:27:10;;;;;;;2.58;1.50;;;;;;;;;;5011160;28;20053;-70
2022/02/25 11:29:44;;;;;;;5.47;1.45;;;;;;;;;;4996302;28;20455;-70
2022/02/25 11:32:14;;;;;;;4.57;1.38;;;;;;;;;;5002062;28;20077;-73
2022/02/25 11:34:44;;;;;;;9.77;1.45;;;;;;;;;;5016098;28;20046;-72
2022/02/25 11:37:15;;;;;;;3.47;1.30;;;;;;;;;;5016158;28;20493;-71
2022/02/25 11:39:44;;;;;;;2.35;1.23;;;;;;;;;;5031150;28;20409;-70
2022/02/25 11:42:27;;;;;;;3.63;1.45;;;;;;;;;;5014585;28;20444;-73
2022/02/25 11:45:27;;;;;;;3.33;1.30;;;;;;;;;;4998797;28;20073;-73
2022/02/25 11:47:58;;;;;;;3.58;1.50;;;;;;;;;;5002452;28;20053;-71
2022/02/25 11:50:36;;;;;;;2.45;1.20;;;;;;;;;;5014692;28;20409;-71
2022/02/25 11:53:18;;;;;;;3.13;1.65;;;;;;;;;;5014255;28;20042;-72
2022/02/25 11:55:47;;;;;;;4.33;1.53;;;;;;;;;;5014294;28;20073;-73
2022/02/25 11:58:36;;;;;;;1.55;1.30;;;;;;;;;;5031138;28;20295;-73
2022/02/25 12:01:14;;;;;;;6.57;1.77;;;;;;;;;;5015533;28;20037;-74
2022/02/25 12:04:05;;;;;;;2.85;1.98;;;;;;;;;;5015265;28;20437;-73
2022/02/25 12:06:53;;;;;;;3.42;1.52;;;;;;;;;;5014196;28;20078;-73
2022/02/25 12:09:39;;;;;;;2.88;1.50;;;;;;;;;;5014941;28;20038;-73
2022/02/25 12:12:26;;;;;;;1.85;1.27;;;;;;;;;;5015151;28;20045;-73
2022/02/25 12:14:59;;;;;;;4.07;1.60;;;;;;;;;;5014487;28;20049;-74
2022/02/25 12:17:36;;;;;;;2.63;1.63;;;;;;;;;;5015498;28;20049;-73
2022/02/25 12:20:08;;;;;;;3.75;1.35;;;;;;;;;;5015174;28;20068;-73
2022/02/25 12:22:48;;;;;;;4.25;1.33;;;;;;;;;;5030423;28;20129;-70
2022/02/25 12:25:36;;;;;;;3.13;1.63;;;;;;;;;;5030216;28;20068;-74
2022/02/25 12:28:27;;;;;;;3.00;1.60;;;;;;;;;;5013204;28;20053;-70
2022/02/25 12:30:54;;;;;;;1.83;1.45;;;;;;;;;;5014789;28;20049;-70
2022/02/25 12:33:40;;;;;;;6.85;1.60;;;;;;;;;;4997013;28;20465;-70
2022/02/25 12:36:15;;;;;;;1.30;1.20;;;;;;;;;;5015010;28;20049;-71
2022/02/25 12:38:43;;;;;;;1.80;1.10;;;;;;;;;;5030230;28;20452;-74
2022/02/25 12:41:12;;;;;;;2.03;1.00;;;;;;;;;;5015072;28;20045;-70
2022/02/25 12:43:47;;;;;;;1.20;1.08;;;;;;;;;;5015075;28;20410;-73
2022/02/25 12:46:16;;;;;;;3.88;1.35;;;;;;;;;;5016133;28;20049;-70
2022/02/25 12:48:44;;;;;;;1.42;1.02;;;;;;;;;;5021952;28;20049;-72
2022/02/25 12:51:12;;;;;;;3.50;1.55;;;;;;;;;;5019397;28;20042;-72
2022/02/25 12:53:58;;;;;;;3.05;1.40;;;;;;;;;;5013609;28;20038;-74
2022/02/25 12:56:30;;;;;;;1.70;1.13;;;;;;;;;;5016891;28;20037;-73
2022/02/25 12:59:16;;;;;;;4.05;1.38;;;;;;;;;;5024480;28;20041;-73
2022/02/25 13:01:51;;;;;;;1.52;1.00;;;;;;;;;;5024071;28;20041;-73
2022/02/25 13:04:20;;;;;;;1.38;1.20;;;;;;;;;;5024190;28;20038;-72
2022/02/25 13:06:50;;;;;;;3.58;1.58;;;;;;;;;;5012439;28;20038;-74
2022/02/25 13:09:19;;;;;;;2.67;1.30;;;;;;;;;;5023019;28;20621;-70
2022/02/25 13:11:53;;;;;;;1.45;1.20;;;;;;;;;;5019996;28;20410;-73
2022/02/25 13:14:26;;;;;;;1.77;1.05;;;;;;;;;;5006337;28;20045;-71
2022/02/25 13:17:08;;;;;;;2.72;1.42;;;;;;;;;;5004738;28;20105;-71
2022/02/25 13:19:41;;;;;;;3.22;1.40;;;;;;;;;;5003856;28;20129;-75
2022/02/25 13:22:08;;;;;;;3.75;1.20;;;;;;;;;;5010969;28;20076;-73
2022/02/25 13:25:01;;;;;;;3.40;1.15;;;;;;;;;;5018828;28;20041;-71
2022/02/25 13:27:47;;;;;;;5.18;1.38;;;;;;;;;;5000727;28;20034;-71
2022/02/25 13:30:18;;;;;;;2.78;1.52;;;;;;;;;;5002596;28;20045;-74
2022/02/25 13:32:47;;;;;;;3.53;1.15;;;;;;;;;;5003143;28;20053;-73
2022/02/25 13:35:15;;;;;;;2.65;0.85;;;;;;;;;;4998033;28;20072;-71
2022/02/25 13:37:46;;;;;;;2.35;1.38;;;;;;;;;;5008775;28;20049;-71
2022/02/25 13:40:26;;;;;;;2.17;1.02;;;;;;;;;;5009806;28;20130;-75
2022/02/25 13:42:54;;;;;;;2.60;1.15;;;;;;;;;;5015723;28;20069;-71
2022/02/25 13:45:36;;;;;;;3.83;1.48;;;;;;;;;;5011237;28;20046;-70
2022/02/25 13:54:08;;;;;;;10.48;1.65;;;;;;;;;;5017719;28;20049;-75
2022/02/25 13:56:37;;;;;;;1.38;0.95;;;;;;;;;;5005802;28;20363;-75
2022/02/25 13:59:11;;;;;;;1.83;1.35;;;;;;;;;;4991841;28;20407;-75
2022/02/25 14:01:40;;;;;;;2.33;0.90;;;;;;;;;;4978263;28;20048;-76
2022/02/25 14:04:14;;;;;;;1.35;1.05;;;;;;;;;;5010657;28;20051;-71
2022/02/25 14:06:54;;;;;;;2.58;1.10;;;;;;;;;;5012551;28;20042;-71
2022/02/25 14:09:23;;;;;;;1.55;1.25;;;;;;;;;;5011271;28;20054;-75
2022/02/25 14:12:07;;;;;;;1.95;1.20;;;;;;;;;;4997840;28;20044;-74
2022/02/25 14:14:38;;;;;;;1.65;1.00;;;;;;;;;;5027933;28;20046;-72
2022/02/25 14:17:12;;;;;;;2.92;1.20;;;;;;;;;;5011560;28;20530;-75
2022/02/25 14:19:40;;;;;;;2.90;1.33;;;;;;;;;;5013964;28;20035;-76
2022/02/25 14:22:12;;;;;;;3.38;1.30;;;;;;;;;;5037300;28;20038;-75
2022/02/25 14:24:45;;;;;;;1.95;1.10;;;;;;;;;;5021092;28;20044;-71
2022/02/25 14:27:13;;;;;;;1.90;1.10;;;;;;;;;;5021916;28;20071;-71
2022/02/25 14:29:41;;;;;;;2.00;1.30;;;;;;;;;;5020936;28;20132;-71
2022/02/25 14:32:15;;;;;;;3.45;1.35;;;;;;;;;;5021815;28;20034;-70
2022/02/25 14:34:45;;;;;;;2.60;1.17;;;;;;;;;;5036370;28;20080;-70
2022/02/25 14:37:32;;;;;;;6.65;1.40;;;;;;;;;;5021936;28;20033;-70
2022/02/25 14:40:00;;;;;;;3.20;1.23;;;;;;;;;;5022460;28;20289;-75
2022/02/25 14:42:31;;;;;;;1.63;1.27;;;;;;;;;;5020372;28;20132;-74
2022/02/25 14:45:00;;;;;;;2.13;1.35;;;;;;;;;;5021096;28;20047;-74
2022/02/25 14:47:28;;;;;;;2.83;1.35;;;;;;;;;;5001893;28;20100;-73
2022/02/25 14:49:56;;;;;;;2.65;1.10;;;;;;;;;;5019726;28;20049;-70
2022/02/25 14:52:23;;;;;;;2.78;1.20;;;;;;;;;;5021522;28;20037;-74
2022/02/25 14:54:51;;;;;;;2.08;1.00;;;;;;;;;;5020816;28;20034;-74
2022/02/25 14:57:18;;;;;;;2.90;1.40;;;;;;;;;;5003715;28;20045;-73
2022/02/25 14:59:46;;;;;;;1.95;1.20;;;;;;;;;;5020024;28;20065;-73
2022/02/25 15:02:14;;;;;;;3.63;1.20;;;;;;;;;;5020610;28;20038;-70
2022/02/25 15:04:41;;;;;;;3.45;1.60;;;;;;;;;;5021442;28;20065;-70
2022/02/25 15:07:09;;;;;;;3.22;1.13;;;;;;;;;;5032425;28;20045;-70
2022/02/25 15:09:36;;;;;;;2.20;1.05;;;;;;;;;;5012101;28;20046;-72
2022/02/25 15:12:08;;;;;;;3.80;1.55;;;;;;;;;;5011264;28;20046;-71
2022/02/25 15:14:37;;;;;;;4.65;1.60;;;;;;;;;;5012650;28;20152;-70
2022/02/25 15:17:05;;;;;;;3.17;1.50;;;;;;;;;;5027258;28;20046;-71
2022/02/25 15:19:34;;;;;;;3.83;1.45;;;;;;;;;;5012698;28;20038;-70